Aérodrome :
LOGIN :

S'inscrire | Disclaimer

   EN    FR    IT 

 










Légende :    VFR   VFR Marginal   IFR   IFR Intensif   IFR Très Intensif
Visi : 
Plafond : 
>= 8 km
>= 3000ft
5 à 8 km
1000 à 3000 ft
1500m à 5 km
500 à 1000 ft
800 à 1500m
200 à 500 ft
< 800m
< 200 ft
Symboles :   Orages  Brouillard  Fortes neiges  Fortes précipitations  Vent > 20 kt
SIGMETs :   Divers  Orages  Givrage  Turbulence  Onde Orograph.  Cendres Volcan.






- Altitude de l'aérodrome : 370 ft


EBBE - Beauvechain AB

DERNIER METAR :
  • 230225Z AUTO 04005KT 8000 BKN080/// 11/10 Q1019 BLU

METARs EXPIRÉS :
  • 230155Z AUTO 04005KT 8000 SCT085/// OVC100/// 11/10 Q1020 BLU
  • 230143Z AUTO 04006KT 8000 FEW085/// BKN100/// 11/10 Q1020 BLU
  • 230125Z AUTO 04005KT 6000 BKN085/// OVC100/// 11/10 Q1020 WHT
  • 230055Z AUTO 03004KT 6000 BKN090/// 10/10 Q1021 WHT
  • 230025Z AUTO 03003KT 6000 OVC090/// 10/10 Q1021 WHT
  • 222355Z AUTO 03003KT 7000 BKN095/// OVC110/// 11/10 Q1021 WHT
  • 222346Z AUTO 06003KT 7000 SCT095/// OVC110/// 11/10 Q1021 WHT

TAF TAF EBBE
Valide du 22 à 19h jusqu'au 23 à 07h UTC


221541Z 2219/2307 VRB01KT FEW035 SCT220
BECMG 2305/2307 21005KT SCT012 BKN025



MET'MAP, la Météo Aéronautique d'un coup d'oeil ! - Copyright ORBIFLY Décembre 2007 - Disclaimer

ORBIFLY MET'MAP TEAM :

Programmation & Développement : Alexandra Zaïnal
Conception & Développement : Baudouin d'Aumeries
Co-Programmation & Développement : Marc-Olivier Méhu
Soutien technique & logistique : Manuel Goepfert

Contact : metmap@orbifly.com




SOURCES & CREDITS :

   NOAA